Aspinwall, Iowa
Current Conditions -  °F | °C
As of 6:55 AM on Sunday 21 Dec 2014 (Local Time) from KDNS Reporting Station
Haze Haze  
Wind Chill: 27°   Ceiling: 300
Heat Index: 36°   Visibility: 0.75mi
Dew Point: 36°   Wind: 14mph
Humidity: 100%   Direction: 190°S
Pressure: 29.86"   Gusts: 23mph
Location:  41.91°N, 95.14°W
Report Text: KDNS 211255Z AUTO 19012G20KT 3/4SM BR OVC003 02/02 A2986 RMK AO2
Loading
Personal Weather Stations






























Interactive Weather Map New forecast layout! Learn more

10-Day Weather Forecast

Advertisements
Track Severe Weather on mobile